Time;durP1;ratioP1;P1;durP2;ratioP2;P2;SDS_P1;SDS_P2;PMS_P1;PMS_P2;Temp;Humidity;BMP_temperature;BMP_pressure;BME280_temperature;BME280_humidity;BME280_pressure;Samples;Min_cycle;Max_cycle;Signal;HPM_P1;HPM_P2
2023/08/05 00:02:22;;;;;;;3.42;3.10;;;;;;;;;;5076982;28;20441;-81
2023/08/05 00:04:48;;;;;;;3.25;2.95;;;;;;;;;;5076985;28;20413;-82
2023/08/05 00:07:14;;;;;;;3.33;2.90;;;;;;;;;;5077004;28;20392;-81
2023/08/05 00:09:40;;;;;;;2.90;2.70;;;;;;;;;;5059420;28;20394;-82
2023/08/05 00:12:06;;;;;;;3.17;2.88;;;;;;;;;;5076933;28;20395;-82
2023/08/05 00:14:34;;;;;;;3.00;2.70;;;;;;;;;;5077654;28;20396;-82
2023/08/05 00:17:00;;;;;;;3.00;2.80;;;;;;;;;;5076708;28;20496;-82
2023/08/05 00:19:26;;;;;;;2.70;2.50;;;;;;;;;;5077519;28;20924;-82
2023/08/05 00:21:52;;;;;;;3.30;2.88;;;;;;;;;;5079923;28;20422;-82
2023/08/05 00:24:18;;;;;;;3.25;2.60;;;;;;;;;;5079783;28;20378;-81
2023/08/05 00:26:44;;;;;;;3.70;2.58;;;;;;;;;;5080805;28;20387;-82
2023/08/05 00:29:10;;;;;;;4.37;2.90;;;;;;;;;;5080639;28;20414;-82
2023/08/05 00:31:36;;;;;;;3.17;2.88;;;;;;;;;;5080839;28;20376;-81
2023/08/05 00:34:02;;;;;;;3.70;3.00;;;;;;;;;;5080343;28;20398;-82
2023/08/05 00:36:28;;;;;;;2.40;2.20;;;;;;;;;;5079927;28;20411;-82
2023/08/05 00:38:54;;;;;;;3.30;3.00;;;;;;;;;;5079640;28;20383;-81
2023/08/05 00:41:20;;;;;;;2.95;2.75;;;;;;;;;;5080089;28;20445;-81
2023/08/05 00:43:46;;;;;;;3.10;2.80;;;;;;;;;;5079347;28;20390;-82
2023/08/05 00:46:12;;;;;;;3.07;2.77;;;;;;;;;;5080495;28;20505;-82
2023/08/05 00:48:39;;;;;;;3.08;2.78;;;;;;;;;;5079311;28;20384;-82
2023/08/05 00:51:08;;;;;;;3.20;2.90;;;;;;;;;;5080015;28;20388;-81
2023/08/05 00:53:38;;;;;;;3.40;2.88;;;;;;;;;;5080464;28;20387;-81
2023/08/05 00:56:04;;;;;;;3.55;3.25;;;;;;;;;;5079926;28;20418;-81
2023/08/05 00:58:32;;;;;;;3.53;3.22;;;;;;;;;;5080677;28;20895;-82
2023/08/05 01:00:59;;;;;;;4.55;3.38;;;;;;;;;;5079894;28;20379;-81
2023/08/05 01:03:25;;;;;;;3.40;3.10;;;;;;;;;;5079936;28;20372;-82
2023/08/05 01:05:54;;;;;;;3.63;3.15;;;;;;;;;;5078979;28;20396;-82
2023/08/05 01:08:22;;;;;;;2.90;2.60;;;;;;;;;;5079097;28;20383;-82
2023/08/05 01:10:48;;;;;;;2.88;2.67;;;;;;;;;;5080139;28;20380;-82
2023/08/05 01:13:14;;;;;;;3.28;2.97;;;;;;;;;;5079985;28;20736;-81
2023/08/05 01:15:41;;;;;;;3.10;2.80;;;;;;;;;;5079868;28;20457;-82
2023/08/05 01:18:07;;;;;;;2.88;2.67;;;;;;;;;;5062094;28;20380;-82
2023/08/05 01:20:39;;;;;;;2.90;2.60;;;;;;;;;;5080070;28;20395;-82
2023/08/05 01:23:13;;;;;;;2.90;2.70;;;;;;;;;;5080211;28;20458;-82
2023/08/05 01:25:40;;;;;;;3.20;2.72;;;;;;;;;;5079486;28;20406;-82
2023/08/05 01:28:06;;;;;;;2.60;2.40;;;;;;;;;;5079107;28;20427;-82
2023/08/05 01:30:33;;;;;;;3.78;2.65;;;;;;;;;;5079511;28;20455;-82
2023/08/05 01:33:01;;;;;;;3.22;2.88;;;;;;;;;;5078700;28;20396;-82
2023/08/05 01:35:27;;;;;;;4.32;2.88;;;;;;;;;;5079343;28;20400;-82
2023/08/05 01:37:53;;;;;;;2.85;2.65;;;;;;;;;;5080278;28;20398;-82
2023/08/05 01:40:19;;;;;;;2.70;2.40;;;;;;;;;;5079122;28;20435;-81
2023/08/05 01:42:45;;;;;;;4.03;2.80;;;;;;;;;;5078979;28;20396;-82
2023/08/05 01:45:11;;;;;;;3.20;2.90;;;;;;;;;;5078954;28;20388;-82
2023/08/05 01:47:37;;;;;;;2.63;2.42;;;;;;;;;;5079429;28;20384;-82
2023/08/05 01:50:03;;;;;;;3.90;2.90;;;;;;;;;;5079648;28;20401;-82
2023/08/05 01:52:28;;;;;;;4.28;2.90;;;;;;;;;;5078858;28;20384;-82
2023/08/05 01:54:54;;;;;;;2.88;2.60;;;;;;;;;;5078769;28;20388;-81
2023/08/05 01:57:20;;;;;;;2.67;2.47;;;;;;;;;;5079186;28;20411;-82
2023/08/05 01:59:46;;;;;;;3.33;2.70;;;;;;;;;;5079049;28;20947;-82
2023/08/05 02:02:12;;;;;;;3.08;2.60;;;;;;;;;;5078762;28;20388;-82
2023/08/05 02:04:38;;;;;;;2.30;2.10;;;;;;;;;;5060646;28;20442;-82
2023/08/05 02:07:04;;;;;;;2.50;2.30;;;;;;;;;;5079019;28;20388;-81
2023/08/05 02:09:30;;;;;;;2.90;2.67;;;;;;;;;;5078575;28;20816;-82
2023/08/05 02:11:56;;;;;;;3.73;2.57;;;;;;;;;;5078422;28;20527;-82
2023/08/05 02:14:22;;;;;;;2.42;2.22;;;;;;;;;;5079358;28;20457;-82
2023/08/05 02:16:48;;;;;;;3.13;2.80;;;;;;;;;;5078734;28;20420;-81
2023/08/05 02:19:14;;;;;;;2.55;2.33;;;;;;;;;;5079451;28;20445;-82
2023/08/05 02:21:40;;;;;;;4.80;2.83;;;;;;;;;;5078803;28;20407;-81
2023/08/05 02:24:09;;;;;;;2.67;2.47;;;;;;;;;;5078763;28;20444;-81
2023/08/05 02:26:36;;;;;;;3.47;2.53;;;;;;;;;;5078744;28;20375;-81
2023/08/05 02:29:03;;;;;;;2.90;2.60;;;;;;;;;;5077807;28;20396;-82
2023/08/05 02:31:29;;;;;;;3.55;2.95;;;;;;;;;;5060606;28;20394;-81
2023/08/05 02:33:55;;;;;;;2.85;2.65;;;;;;;;;;5060458;28;20780;-82
2023/08/05 02:36:21;;;;;;;3.08;2.70;;;;;;;;;;5060183;28;20511;-82
2023/08/05 02:38:47;;;;;;;3.33;2.83;;;;;;;;;;5059934;28;20383;-82
2023/08/05 02:41:13;;;;;;;4.03;3.20;;;;;;;;;;5076342;28;20699;-82
2023/08/05 02:43:39;;;;;;;4.30;3.20;;;;;;;;;;5077631;28;20516;-82
2023/08/05 02:46:05;;;;;;;3.30;2.80;;;;;;;;;;5077915;28;20379;-81
2023/08/05 02:48:31;;;;;;;2.42;2.20;;;;;;;;;;5078463;28;20375;-81
2023/08/05 02:50:57;;;;;;;4.97;2.70;;;;;;;;;;5078450;28;20384;-82
2023/08/05 02:53:23;;;;;;;3.13;2.80;;;;;;;;;;5077892;28;20387;-81
2023/08/05 02:55:49;;;;;;;2.93;2.70;;;;;;;;;;5078255;28;20500;-82
2023/08/05 02:58:15;;;;;;;3.35;3.00;;;;;;;;;;5078718;28;20394;-82
2023/08/05 03:00:41;;;;;;;3.40;2.90;;;;;;;;;;5078355;28;20384;-81
2023/08/05 03:03:08;;;;;;;3.70;3.40;;;;;;;;;;5078849;28;20812;-82
2023/08/05 03:05:35;;;;;;;4.00;3.20;;;;;;;;;;5077055;28;20376;-81
2023/08/05 03:08:01;;;;;;;4.55;3.50;;;;;;;;;;5078345;28;20745;-81
2023/08/05 03:10:27;;;;;;;4.40;3.45;;;;;;;;;;5077573;28;20384;-82
2023/08/05 03:12:53;;;;;;;3.30;3.00;;;;;;;;;;5078238;28;20419;-82
2023/08/05 03:15:19;;;;;;;3.03;2.80;;;;;;;;;;5078113;28;20380;-81
2023/08/05 03:17:45;;;;;;;4.05;3.33;;;;;;;;;;5077853;28;20816;-82
2023/08/05 03:20:27;;;;;;;3.25;2.90;;;;;;;;;;5077910;28;20427;-81
2023/08/05 03:22:53;;;;;;;3.30;3.00;;;;;;;;;;5078659;28;20383;-82
2023/08/05 03:25:20;;;;;;;4.30;3.40;;;;;;;;;;5077895;28;20383;-82
2023/08/05 03:27:46;;;;;;;3.50;3.20;;;;;;;;;;5059863;28;20394;-82
2023/08/05 03:30:12;;;;;;;3.23;3.00;;;;;;;;;;5077338;28;20562;-82
2023/08/05 03:32:38;;;;;;;2.95;2.75;;;;;;;;;;5077653;28;20406;-82
2023/08/05 03:35:04;;;;;;;3.80;2.95;;;;;;;;;;5059865;28;20876;-82
2023/08/05 03:37:30;;;;;;;3.90;3.10;;;;;;;;;;5077508;28;20419;-82
2023/08/05 03:39:56;;;;;;;3.38;3.08;;;;;;;;;;5077401;28;20391;-82
2023/08/05 03:42:22;;;;;;;3.10;2.80;;;;;;;;;;5077424;28;20743;-82
2023/08/05 03:44:48;;;;;;;5.13;3.33;;;;;;;;;;5079012;28;20407;-82
2023/08/05 03:47:14;;;;;;;4.20;3.13;;;;;;;;;;5080201;28;20387;-82
2023/08/05 03:49:40;;;;;;;3.30;2.83;;;;;;;;;;5081525;28;20439;-82
2023/08/05 03:52:06;;;;;;;3.45;2.95;;;;;;;;;;5085818;28;20432;-81
2023/08/05 03:54:32;;;;;;;3.45;2.80;;;;;;;;;;5085322;28;20384;-82
2023/08/05 03:56:59;;;;;;;3.45;3.15;;;;;;;;;;5086283;28;20419;-82
2023/08/05 03:59:25;;;;;;;3.40;3.10;;;;;;;;;;5082022;28;20384;-82
2023/08/05 04:01:52;;;;;;;3.47;3.10;;;;;;;;;;5080682;28;20744;-81
2023/08/05 04:04:18;;;;;;;3.60;3.00;;;;;;;;;;5080241;28;20395;-82
2023/08/05 04:06:45;;;;;;;3.50;3.03;;;;;;;;;;5080520;28;20387;-81
2023/08/05 04:09:11;;;;;;;3.15;2.80;;;;;;;;;;5080579;28;20388;-82
2023/08/05 04:11:37;;;;;;;3.35;3.05;;;;;;;;;;5080639;28;20379;-82
2023/08/05 04:14:04;;;;;;;3.28;2.97;;;;;;;;;;5081071;28;20423;-81
2023/08/05 04:16:30;;;;;;;3.75;2.90;;;;;;;;;;5080686;28;20471;-82
2023/08/05 04:18:58;;;;;;;2.95;2.63;;;;;;;;;;5079917;28;20380;-82
2023/08/05 04:21:28;;;;;;;2.80;2.60;;;;;;;;;;5081168;28;20380;-82
2023/08/05 04:23:54;;;;;;;2.93;2.73;;;;;;;;;;5079908;28;20474;-82
2023/08/05 04:26:20;;;;;;;3.95;3.38;;;;;;;;;;5080454;28;20379;-82
2023/08/05 04:28:46;;;;;;;2.87;2.67;;;;;;;;;;5080994;28;20780;-82
2023/08/05 04:31:14;;;;;;;4.28;2.88;;;;;;;;;;5079891;28;20391;-82
2023/08/05 04:33:40;;;;;;;2.97;2.65;;;;;;;;;;5079824;28;20384;-82
2023/08/05 04:36:06;;;;;;;3.10;2.63;;;;;;;;;;5080519;28;20407;-81
2023/08/05 04:38:33;;;;;;;3.20;2.90;;;;;;;;;;5080003;28;20380;-82
2023/08/05 04:40:59;;;;;;;2.60;2.40;;;;;;;;;;5080667;28;20489;-82
2023/08/05 04:43:25;;;;;;;3.25;2.95;;;;;;;;;;5080415;28;20864;-82
2023/08/05 04:45:51;;;;;;;3.45;2.75;;;;;;;;;;5080085;28;20395;-81
2023/08/05 04:48:17;;;;;;;3.10;2.78;;;;;;;;;;5080796;28;20454;-81
2023/08/05 04:50:43;;;;;;;2.88;2.67;;;;;;;;;;5080868;28;20372;-81
2023/08/05 04:53:10;;;;;;;3.00;2.75;;;;;;;;;;5080654;28;20388;-82
2023/08/05 04:55:36;;;;;;;3.25;2.92;;;;;;;;;;5062465;28;20505;-81
2023/08/05 04:58:02;;;;;;;4.28;3.10;;;;;;;;;;5080955;28;20388;-81
2023/08/05 05:00:28;;;;;;;3.10;2.90;;;;;;;;;;5080256;28;20534;-81
2023/08/05 05:02:54;;;;;;;4.32;3.05;;;;;;;;;;5080400;28;20423;-81
2023/08/05 05:05:20;;;;;;;4.00;2.97;;;;;;;;;;5079718;28;20387;-81
2023/08/05 05:07:46;;;;;;;4.07;3.40;;;;;;;;;;5062315;28;20437;-82
2023/08/05 05:10:12;;;;;;;6.25;3.60;;;;;;;;;;5080262;28;20384;-82
2023/08/05 05:12:38;;;;;;;4.10;3.20;;;;;;;;;;5080911;28;20394;-81
2023/08/05 05:15:04;;;;;;;4.93;3.20;;;;;;;;;;5059936;28;20463;-82
2023/08/05 05:17:34;;;;;;;3.78;3.20;;;;;;;;;;5079370;28;20464;-82
2023/08/05 05:20:00;;;;;;;3.47;3.17;;;;;;;;;;5079080;28;20421;-81
2023/08/05 05:22:26;;;;;;;3.60;3.30;;;;;;;;;;5079247;28;20390;-82
2023/08/05 05:24:52;;;;;;;3.10;2.80;;;;;;;;;;5078670;28;20388;-82
2023/08/05 05:27:18;;;;;;;3.72;3.08;;;;;;;;;;5079494;28;20415;-81
2023/08/05 05:29:45;;;;;;;2.97;2.78;;;;;;;;;;5079366;28;20384;-81
2023/08/05 05:32:11;;;;;;;4.37;4.00;;;;;;;;;;5079522;28;20384;-81
2023/08/05 05:34:37;;;;;;;3.60;3.17;;;;;;;;;;5080133;28;20491;-81
2023/08/05 05:37:03;;;;;;;5.00;3.58;;;;;;;;;;5080151;28;20462;-81
2023/08/05 05:39:29;;;;;;;3.58;3.28;;;;;;;;;;5079582;28;20379;-81
2023/08/05 05:41:55;;;;;;;3.45;3.15;;;;;;;;;;5079613;28;20399;-81
2023/08/05 05:44:21;;;;;;;3.90;3.50;;;;;;;;;;5079465;28;20384;-81
2023/08/05 05:46:47;;;;;;;3.07;2.83;;;;;;;;;;5078691;28;20387;-81
2023/08/05 05:49:15;;;;;;;3.35;3.05;;;;;;;;;;5079036;28;20391;-82
2023/08/05 05:51:42;;;;;;;3.40;3.10;;;;;;;;;;5078861;28;20384;-82
2023/08/05 05:54:08;;;;;;;3.53;3.22;;;;;;;;;;5078133;28;20891;-82
2023/08/05 05:56:34;;;;;;;3.72;3.42;;;;;;;;;;5079404;28;20419;-82
2023/08/05 05:59:00;;;;;;;4.82;3.92;;;;;;;;;;5078918;28;20376;-81
2023/08/05 06:01:26;;;;;;;4.13;3.72;;;;;;;;;;5078761;28;20387;-81
2023/08/05 06:03:52;;;;;;;4.97;4.30;;;;;;;;;;5078898;28;20754;-81
2023/08/05 06:06:18;;;;;;;6.55;5.95;;;;;;;;;;5078455;28;20459;-81
2023/08/05 06:08:44;;;;;;;5.28;4.78;;;;;;;;;;5061106;28;20740;-81
2023/08/05 06:11:10;;;;;;;4.05;3.75;;;;;;;;;;5078334;28;20384;-81
2023/08/05 06:13:36;;;;;;;5.30;4.10;;;;;;;;;;5078775;28;20495;-81
2023/08/05 06:16:02;;;;;;;4.60;4.00;;;;;;;;;;5061373;28;20408;-81
2023/08/05 06:18:28;;;;;;;7.38;5.30;;;;;;;;;;5059787;28;20433;-82
2023/08/05 06:20:54;;;;;;;4.72;4.22;;;;;;;;;;5079085;28;20391;-82
2023/08/05 06:23:21;;;;;;;4.78;4.28;;;;;;;;;;5079044;28;20456;-82
2023/08/05 06:25:47;;;;;;;4.80;3.97;;;;;;;;;;5078040;28;20379;-81
2023/08/05 06:28:13;;;;;;;4.00;3.60;;;;;;;;;;5078118;28;20387;-81
2023/08/05 06:30:45;;;;;;;4.40;4.00;;;;;;;;;;5077842;28;20402;-81
2023/08/05 06:33:12;;;;;;;3.72;3.42;;;;;;;;;;5077573;28;20411;-81
2023/08/05 06:35:38;;;;;;;4.67;4.27;;;;;;;;;;5078594;28;20436;-81
2023/08/05 06:38:04;;;;;;;4.07;3.63;;;;;;;;;;5077202;28;20414;-81
2023/08/05 06:40:30;;;;;;;4.00;3.60;;;;;;;;;;5078174;28;20391;-81
2023/08/05 06:42:56;;;;;;;3.72;3.40;;;;;;;;;;5078160;28;20436;-81
2023/08/05 06:45:25;;;;;;;4.18;3.60;;;;;;;;;;5077992;28;20379;-81
2023/08/05 06:47:51;;;;;;;3.47;3.22;;;;;;;;;;5077648;28;20383;-81
2023/08/05 06:50:17;;;;;;;3.88;3.58;;;;;;;;;;5078338;28;20391;-81
2023/08/05 06:52:43;;;;;;;3.95;3.60;;;;;;;;;;5077560;28;20446;-82
2023/08/05 06:55:09;;;;;;;3.78;3.20;;;;;;;;;;5077482;28;20396;-82
2023/08/05 06:57:35;;;;;;;4.40;4.00;;;;;;;;;;5078291;28;20571;-82
2023/08/05 07:00:02;;;;;;;4.05;3.75;;;;;;;;;;5077660;28;20478;-82
2023/08/05 07:02:29;;;;;;;3.40;3.10;;;;;;;;;;5077813;28;20454;-81
2023/08/05 07:04:55;;;;;;;3.67;3.38;;;;;;;;;;5078220;28;20383;-82
2023/08/05 07:07:21;;;;;;;4.10;3.70;;;;;;;;;;5078029;28;20386;-82
2023/08/05 07:09:47;;;;;;;4.10;3.70;;;;;;;;;;5077394;28;20451;-81
2023/08/05 07:12:13;;;;;;;3.90;3.60;;;;;;;;;;5077300;28;20423;-82
2023/08/05 07:14:39;;;;;;;4.85;3.78;;;;;;;;;;5077767;28;20393;-81
2023/08/05 07:17:05;;;;;;;3.92;3.63;;;;;;;;;;5078156;28;20431;-82
2023/08/05 07:19:31;;;;;;;4.10;3.80;;;;;;;;;;5077585;28;20394;-82
2023/08/05 07:21:57;;;;;;;4.18;3.50;;;;;;;;;;5076612;28;20384;-82
2023/08/05 07:24:23;;;;;;;3.95;3.63;;;;;;;;;;5077802;28;20383;-81
2023/08/05 07:26:49;;;;;;;3.72;3.42;;;;;;;;;;5077193;28;20415;-81
2023/08/05 07:29:15;;;;;;;3.70;3.40;;;;;;;;;;5081414;28;20390;-82
2023/08/05 07:31:41;;;;;;;3.67;3.37;;;;;;;;;;5083959;28;20379;-81
2023/08/05 07:34:09;;;;;;;5.57;3.42;;;;;;;;;;5084153;28;20411;-82
2023/08/05 07:36:36;;;;;;;3.70;3.47;;;;;;;;;;5083717;28;20411;-82
2023/08/05 07:39:06;;;;;;;4.10;3.45;;;;;;;;;;5083602;28;20732;-81
2023/08/05 07:41:32;;;;;;;3.78;3.40;;;;;;;;;;5084164;28;20403;-82
2023/08/05 07:43:58;;;;;;;4.07;3.67;;;;;;;;;;5084927;28;20466;-82
2023/08/05 07:46:31;;;;;;;3.33;3.03;;;;;;;;;;5084246;28;20856;-82
2023/08/05 07:48:58;;;;;;;3.55;3.25;;;;;;;;;;5083329;28;20404;-81
2023/08/05 07:51:25;;;;;;;3.30;3.00;;;;;;;;;;5082924;28;20379;-82
2023/08/05 07:53:53;;;;;;;3.40;3.00;;;;;;;;;;5083343;28;20403;-81
2023/08/05 07:56:20;;;;;;;4.40;3.00;;;;;;;;;;5065559;28;20407;-82
2023/08/05 07:58:46;;;;;;;3.22;2.92;;;;;;;;;;5083908;28;20390;-82
2023/08/05 08:01:22;;;;;;;4.15;3.75;;;;;;;;;;5065068;28;20406;-82
2023/08/05 08:03:51;;;;;;;3.45;3.15;;;;;;;;;;5065744;28;20379;-82
2023/08/05 08:06:18;;;;;;;3.15;2.92;;;;;;;;;;5083674;28;20383;-82
2023/08/05 08:08:44;;;;;;;3.70;3.40;;;;;;;;;;5083207;28;20372;-82
2023/08/05 08:11:10;;;;;;;3.20;3.00;;;;;;;;;;5083645;28;20390;-82
2023/08/05 08:13:36;;;;;;;3.47;3.13;;;;;;;;;;5083076;28;20394;-82
2023/08/05 08:16:02;;;;;;;3.60;3.27;;;;;;;;;;5083632;28;20414;-82
2023/08/05 08:18:29;;;;;;;2.63;2.42;;;;;;;;;;5083493;28;20386;-82
2023/08/05 08:20:54;;;;;;;2.97;2.72;;;;;;;;;;5083555;28;20399;-82
2023/08/05 08:23:21;;;;;;;2.70;2.50;;;;;;;;;;5083088;28;20384;-82
2023/08/05 08:25:47;;;;;;;3.55;2.83;;;;;;;;;;5083380;28;20914;-82
2023/08/05 08:28:13;;;;;;;3.70;3.00;;;;;;;;;;5083547;28;20391;-82
2023/08/05 08:30:39;;;;;;;3.20;3.00;;;;;;;;;;5083799;28;20379;-81
2023/08/05 08:33:05;;;;;;;3.55;3.13;;;;;;;;;;5083228;28;20383;-82
2023/08/05 08:35:31;;;;;;;3.63;2.78;;;;;;;;;;5081674;28;20388;-82
2023/08/05 08:37:57;;;;;;;3.38;2.53;;;;;;;;;;5083102;28;20430;-82
2023/08/05 08:40:23;;;;;;;2.60;2.40;;;;;;;;;;5081072;28;20388;-82
2023/08/05 08:42:50;;;;;;;2.75;2.45;;;;;;;;;;5080033;28;20445;-83
2023/08/05 08:45:18;;;;;;;2.90;2.70;;;;;;;;;;5080195;28;20388;-82
2023/08/05 08:47:45;;;;;;;3.60;3.25;;;;;;;;;;5081140;28;20387;-82
2023/08/05 08:50:12;;;;;;;2.40;2.20;;;;;;;;;;5080952;28;20395;-83
2023/08/05 08:52:38;;;;;;;2.55;2.30;;;;;;;;;;5079830;28;20383;-83
2023/08/05 08:55:05;;;;;;;2.50;2.30;;;;;;;;;;5079982;28;20828;-82
2023/08/05 08:57:31;;;;;;;4.15;2.30;;;;;;;;;;5080497;28;20506;-83
2023/08/05 08:59:56;;;;;;;2.80;2.50;;;;;;;;;;5080154;28;20407;-83
2023/08/05 09:02:26;;;;;;;2.50;2.10;;;;;;;;;;5079867;28;20912;-83
2023/08/05 09:04:53;;;;;;;2.75;1.92;;;;;;;;;;5080021;28;20412;-83
2023/08/05 09:07:20;;;;;;;2.55;1.92;;;;;;;;;;5079247;28;20376;-82
2023/08/05 09:09:47;;;;;;;2.30;2.10;;;;;;;;;;5079922;28;20466;-83
2023/08/05 09:12:14;;;;;;;2.60;2.00;;;;;;;;;;5079535;28;20399;-83
2023/08/05 09:14:40;;;;;;;2.17;1.88;;;;;;;;;;5079931;28;20379;-83
2023/08/05 09:17:06;;;;;;;2.10;1.90;;;;;;;;;;5079922;28;20416;-82
2023/08/05 09:19:32;;;;;;;2.38;2.00;;;;;;;;;;5079278;28;20441;-82
2023/08/05 09:22:01;;;;;;;3.17;2.33;;;;;;;;;;5078638;28;20914;-83
2023/08/05 09:24:28;;;;;;;2.10;1.90;;;;;;;;;;5079915;28;20380;-83
2023/08/05 09:26:57;;;;;;;2.03;1.80;;;;;;;;;;5079576;28;20371;-82
2023/08/05 09:29:24;;;;;;;3.03;1.95;;;;;;;;;;5079077;28;20387;-83
2023/08/05 09:31:57;;;;;;;2.25;1.92;;;;;;;;;;5079055;28;20857;-82
2023/08/05 09:34:31;;;;;;;2.13;2.00;;;;;;;;;;5079505;28;20489;-82
2023/08/05 09:36:57;;;;;;;2.60;1.87;;;;;;;;;;5079085;28;20419;-82
2023/08/05 09:39:23;;;;;;;2.80;2.25;;;;;;;;;;5079149;28;20382;-82
2023/08/05 09:41:51;;;;;;;2.90;2.30;;;;;;;;;;5077913;28;20723;-82
2023/08/05 09:44:17;;;;;;;2.22;2.03;;;;;;;;;;5078691;28;20462;-82
2023/08/05 09:46:46;;;;;;;2.63;2.42;;;;;;;;;;5078266;28;20380;-82
2023/08/05 09:49:17;;;;;;;3.83;2.40;;;;;;;;;;5079099;28;20391;-82
2023/08/05 09:51:44;;;;;;;2.92;2.20;;;;;;;;;;5077514;28;20913;-82
2023/08/05 09:54:13;;;;;;;3.60;2.17;;;;;;;;;;5079057;28;20400;-82
2023/08/05 09:56:40;;;;;;;2.10;1.90;;;;;;;;;;5078910;28;20480;-82
2023/08/05 09:59:07;;;;;;;2.75;2.15;;;;;;;;;;5078535;28;20376;-82
2023/08/05 10:01:34;;;;;;;2.22;2.03;;;;;;;;;;5078706;28;20391;-81
2023/08/05 10:04:01;;;;;;;2.60;2.10;;;;;;;;;;5078390;28;20372;-82
2023/08/05 10:06:28;;;;;;;2.53;2.15;;;;;;;;;;5078935;28;20437;-82
2023/08/05 10:08:54;;;;;;;2.40;2.20;;;;;;;;;;5079359;28;20387;-82
2023/08/05 10:11:21;;;;;;;2.30;2.10;;;;;;;;;;5079157;28;20390;-82
2023/08/05 10:13:52;;;;;;;2.30;2.00;;;;;;;;;;5078936;28;20391;-83
2023/08/05 10:16:18;;;;;;;2.40;2.20;;;;;;;;;;5078440;28;20957;-82
2023/08/05 10:18:45;;;;;;;2.53;2.08;;;;;;;;;;5078721;28;20399;-82
2023/08/05 10:21:11;;;;;;;3.50;2.20;;;;;;;;;;5078084;28;20736;-82
2023/08/05 10:23:37;;;;;;;3.25;1.80;;;;;;;;;;5077884;28;20403;-82
2023/08/05 10:26:04;;;;;;;2.50;2.30;;;;;;;;;;5078566;28;20398;-81
2023/08/05 10:28:38;;;;;;;2.58;2.40;;;;;;;;;;5077969;28;20384;-82
2023/08/05 10:31:05;;;;;;;2.63;2.25;;;;;;;;;;5078343;28;20721;-82
2023/08/05 10:33:31;;;;;;;2.42;2.22;;;;;;;;;;5076655;28;20395;-82
2023/08/05 10:36:06;;;;;;;2.42;2.22;;;;;;;;;;5078002;28;20415;-82
2023/08/05 10:38:41;;;;;;;2.30;2.00;;;;;;;;;;5078723;28;20391;-83
2023/08/05 10:41:10;;;;;;;2.22;1.98;;;;;;;;;;5079035;28;20371;-82
2023/08/05 10:43:40;;;;;;;2.80;2.00;;;;;;;;;;5077523;28;20388;-82
2023/08/05 10:46:06;;;;;;;2.20;2.00;;;;;;;;;;5077529;28;20380;-82
2023/08/05 10:48:36;;;;;;;2.58;2.38;;;;;;;;;;5077493;28;20903;-82
2023/08/05 10:51:23;;;;;;;2.33;2.13;;;;;;;;;;5077593;28;20380;-82
2023/08/05 10:53:51;;;;;;;3.10;2.50;;;;;;;;;;5078575;28;20403;-82
2023/08/05 10:56:18;;;;;;;2.50;2.30;;;;;;;;;;5078195;28;20794;-82
2023/08/05 10:58:48;;;;;;;2.80;2.50;;;;;;;;;;5078646;28;20526;-82
2023/08/05 11:01:14;;;;;;;2.80;2.60;;;;;;;;;;5077986;28;20394;-82
2023/08/05 11:03:46;;;;;;;2.53;2.15;;;;;;;;;;5077714;28;20384;-82
2023/08/05 11:06:13;;;;;;;3.43;2.50;;;;;;;;;;5077534;28;20467;-82
2023/08/05 11:08:39;;;;;;;2.95;2.40;;;;;;;;;;5077538;28;20372;-82
2023/08/05 11:11:07;;;;;;;2.30;2.10;;;;;;;;;;5077732;28;20430;-82
2023/08/05 11:13:37;;;;;;;2.50;2.30;;;;;;;;;;5078515;28;20488;-82
2023/08/05 11:16:04;;;;;;;2.70;2.50;;;;;;;;;;5077810;28;20407;-82
2023/08/05 11:18:31;;;;;;;4.57;2.88;;;;;;;;;;5078196;28;20444;-82
2023/08/05 11:20:57;;;;;;;2.80;2.60;;;;;;;;;;5076983;28;20383;-82
2023/08/05 11:23:24;;;;;;;3.40;2.85;;;;;;;;;;5077942;28;20380;-82
2023/08/05 11:25:50;;;;;;;3.47;2.85;;;;;;;;;;5076943;28;20457;-82
2023/08/05 11:28:16;;;;;;;3.30;2.80;;;;;;;;;;5077202;28;20380;-82
2023/08/05 11:30:42;;;;;;;3.67;3.05;;;;;;;;;;5077488;28;20399;-81
2023/08/05 11:33:08;;;;;;;2.97;2.78;;;;;;;;;;5076870;28;20376;-82
2023/08/05 11:35:42;;;;;;;4.55;3.72;;;;;;;;;;5075850;28;20390;-82
2023/08/05 11:38:12;;;;;;;3.47;3.17;;;;;;;;;;5076866;28;20445;-81
2023/08/05 11:40:42;;;;;;;3.83;3.00;;;;;;;;;;5076218;28;20517;-82
2023/08/05 11:43:08;;;;;;;3.27;2.97;;;;;;;;;;5077950;28;20407;-82
2023/08/05 11:45:39;;;;;;;2.92;2.58;;;;;;;;;;5078109;28;20383;-82
2023/08/05 11:48:05;;;;;;;2.85;2.60;;;;;;;;;;5081609;28;20418;-81
2023/08/05 11:50:37;;;;;;;3.20;2.70;;;;;;;;;;5081142;28;20379;-81
2023/08/05 11:53:06;;;;;;;2.60;2.40;;;;;;;;;;5080781;28;20376;-81
2023/08/05 11:55:39;;;;;;;3.08;2.78;;;;;;;;;;5077731;28;20479;-81
2023/08/05 11:58:06;;;;;;;2.70;2.50;;;;;;;;;;5076794;28;20392;-81
2023/08/05 12:00:32;;;;;;;2.70;2.50;;;;;;;;;;5075733;28;20520;-81
2023/08/05 12:02:58;;;;;;;2.75;2.55;;;;;;;;;;5076259;28;20827;-81
2023/08/05 12:05:24;;;;;;;3.35;2.80;;;;;;;;;;5077136;28;20469;-81
2023/08/05 12:07:51;;;;;;;4.10;3.50;;;;;;;;;;5076663;28;20721;-81
2023/08/05 12:10:18;;;;;;;4.70;3.40;;;;;;;;;;5076199;28;20383;-81
2023/08/05 12:12:50;;;;;;;3.40;3.10;;;;;;;;;;5076487;28;20387;-81
2023/08/05 12:15:26;;;;;;;4.50;3.17;;;;;;;;;;5076537;28;20382;-81
2023/08/05 12:17:58;;;;;;;3.60;3.03;;;;;;;;;;5079545;28;20471;-81
2023/08/05 12:20:25;;;;;;;3.03;2.72;;;;;;;;;;5079706;28;20380;-82
2023/08/05 12:22:52;;;;;;;3.30;3.03;;;;;;;;;;5080221;28;20433;-82
2023/08/05 12:25:18;;;;;;;4.25;3.15;;;;;;;;;;5079414;28;20446;-81
2023/08/05 12:27:45;;;;;;;3.08;2.78;;;;;;;;;;5079052;28;20387;-81
2023/08/05 12:30:11;;;;;;;4.20;2.80;;;;;;;;;;5078088;28;20388;-81
2023/08/05 12:32:37;;;;;;;3.15;2.78;;;;;;;;;;5079501;28;20391;-82
2023/08/05 12:35:03;;;;;;;3.50;2.70;;;;;;;;;;5079737;28;20388;-82
2023/08/05 12:37:30;;;;;;;3.80;2.97;;;;;;;;;;5079957;28;20560;-81
2023/08/05 12:39:56;;;;;;;3.55;2.70;;;;;;;;;;5079398;28;20434;-81
2023/08/05 12:42:22;;;;;;;3.50;2.88;;;;;;;;;;5079617;28;20423;-82
2023/08/05 12:44:48;;;;;;;4.27;2.77;;;;;;;;;;5079189;28;20457;-81
2023/08/05 12:47:14;;;;;;;2.70;2.50;;;;;;;;;;5079364;28;20387;-81
2023/08/05 12:49:42;;;;;;;3.20;2.78;;;;;;;;;;5079566;28;20411;-81
2023/08/05 12:52:08;;;;;;;2.78;2.58;;;;;;;;;;5078538;28;20368;-82
2023/08/05 12:54:34;;;;;;;2.80;2.55;;;;;;;;;;5060539;28;20384;-81
2023/08/05 12:57:00;;;;;;;2.50;2.30;;;;;;;;;;5079304;28;20449;-81
2023/08/05 12:59:26;;;;;;;2.78;2.50;;;;;;;;;;5079495;28;20403;-81
2023/08/05 13:01:52;;;;;;;2.50;2.30;;;;;;;;;;5079084;28;20387;-81
2023/08/05 13:04:18;;;;;;;2.70;2.50;;;;;;;;;;5079849;28;20409;-81
2023/08/05 13:06:44;;;;;;;3.63;2.65;;;;;;;;;;5079668;28;20375;-81
2023/08/05 13:09:10;;;;;;;2.53;2.33;;;;;;;;;;5078957;28;20392;-82
2023/08/05 13:11:36;;;;;;;3.70;2.40;;;;;;;;;;5079472;28;20379;-81
2023/08/05 13:14:02;;;;;;;2.47;2.28;;;;;;;;;;5078870;28;20376;-82
2023/08/05 13:16:28;;;;;;;2.30;2.10;;;;;;;;;;5079762;28;20563;-82
2023/08/05 13:18:54;;;;;;;2.58;2.38;;;;;;;;;;5077876;28;20379;-82
2023/08/05 13:21:20;;;;;;;5.38;2.60;;;;;;;;;;5078244;28;20406;-81
2023/08/05 13:23:46;;;;;;;2.63;2.13;;;;;;;;;;5078588;28;20410;-81
2023/08/05 13:26:12;;;;;;;2.10;2.00;;;;;;;;;;5077611;28;20384;-82
2023/08/05 13:28:38;;;;;;;2.58;2.38;;;;;;;;;;5078607;28;20419;-81
2023/08/05 13:31:04;;;;;;;4.40;2.20;;;;;;;;;;5059758;28;20725;-81
2023/08/05 13:33:31;;;;;;;2.88;2.20;;;;;;;;;;5078440;28;20391;-81
2023/08/05 13:35:57;;;;;;;2.60;2.40;;;;;;;;;;5078037;28;20461;-82
2023/08/05 13:38:23;;;;;;;3.45;2.13;;;;;;;;;;5078479;28;20823;-81
2023/08/05 13:40:50;;;;;;;6.47;2.20;;;;;;;;;;5078145;28;20383;-81
2023/08/05 13:43:16;;;;;;;3.00;2.00;;;;;;;;;;5078549;28;20394;-81
2023/08/05 13:45:48;;;;;;;3.00;2.20;;;;;;;;;;5077701;28;20719;-81
2023/08/05 13:48:14;;;;;;;2.25;2.03;;;;;;;;;;5078349;28;20380;-81
2023/08/05 13:50:40;;;;;;;2.28;2.08;;;;;;;;;;5078362;28;20375;-82
2023/08/05 13:53:06;;;;;;;2.55;2.22;;;;;;;;;;5078478;28;20379;-82
2023/08/05 13:55:32;;;;;;;3.13;2.00;;;;;;;;;;5078314;28;20843;-82
2023/08/05 13:57:58;;;;;;;3.00;2.22;;;;;;;;;;5078432;28;20391;-81
2023/08/05 14:00:24;;;;;;;2.15;1.95;;;;;;;;;;5077877;28;20432;-82
2023/08/05 14:02:54;;;;;;;2.38;2.17;;;;;;;;;;5077742;28;20383;-82
2023/08/05 14:05:20;;;;;;;2.40;2.20;;;;;;;;;;5078127;28;20483;-81
2023/08/05 14:07:46;;;;;;;2.40;1.90;;;;;;;;;;5078072;28;20475;-82
2023/08/05 14:10:12;;;;;;;1.80;1.70;;;;;;;;;;5077327;28;20383;-81
2023/08/05 14:12:38;;;;;;;2.38;1.70;;;;;;;;;;5077756;28;20376;-81
2023/08/05 14:15:05;;;;;;;2.08;1.90;;;;;;;;;;5078457;28;20429;-82
2023/08/05 14:17:31;;;;;;;2.75;2.20;;;;;;;;;;5078782;28;20403;-82
2023/08/05 14:19:57;;;;;;;2.17;2.00;;;;;;;;;;5078372;28;20387;-82
2023/08/05 14:22:23;;;;;;;2.40;2.20;;;;;;;;;;5078057;28;20376;-82
2023/08/05 14:24:49;;;;;;;2.03;1.83;;;;;;;;;;5078027;28;20445;-82
2023/08/05 14:27:15;;;;;;;1.95;1.83;;;;;;;;;;5078172;28;20396;-82
2023/08/05 14:29:41;;;;;;;2.10;1.90;;;;;;;;;;5077510;28;20391;-82
2023/08/05 14:32:07;;;;;;;2.05;1.85;;;;;;;;;;5077717;28;20824;-82
2023/08/05 14:34:33;;;;;;;3.67;2.10;;;;;;;;;;5077935;28;20855;-82
2023/08/05 14:36:59;;;;;;;2.67;2.08;;;;;;;;;;5079003;28;20416;-82
2023/08/05 14:39:25;;;;;;;2.60;1.88;;;;;;;;;;5077622;28;20388;-82
2023/08/05 14:41:51;;;;;;;2.10;1.80;;;;;;;;;;5078504;28;20386;-82